sensor_id;sensor_type;location;lat;lon;timestamp;P1;durP1;ratioP1;P2;durP2;ratioP2
20454;SDS011;10386;54.314;10.022;2023-08-30T00:00:37;2.23;;;2.13;;
20454;SDS011;10386;54.314;10.022;2023-08-30T00:03:05;2.10;;;2.00;;
20454;SDS011;10386;54.314;10.022;2023-08-30T00:05:40;3.90;;;2.20;;
20454;SDS011;10386;54.314;10.022;2023-08-30T00:08:09;2.50;;;2.20;;
20454;SDS011;10386;54.314;10.022;2023-08-30T00:10:37;1.97;;;1.87;;
20454;SDS011;10386;54.314;10.022;2023-08-30T00:13:06;5.27;;;2.40;;
20454;SDS011;10386;54.314;10.022;2023-08-30T00:15:34;2.27;;;2.07;;
20454;SDS011;10386;54.314;10.022;2023-08-30T00:18:04;1.87;;;1.77;;
20454;SDS011;10386;54.314;10.022;2023-08-30T00:20:32;2.77;;;1.93;;
20454;SDS011;10386;54.314;10.022;2023-08-30T00:23:01;1.80;;;1.70;;
20454;SDS011;10386;54.314;10.022;2023-08-30T00:25:29;1.90;;;1.80;;
20454;SDS011;10386;54.314;10.022;2023-08-30T00:27:58;1.93;;;1.83;;
20454;SDS011;10386;54.314;10.022;2023-08-30T00:30:26;2.40;;;2.20;;
20454;SDS011;10386;54.314;10.022;2023-08-30T00:32:54;2.43;;;2.20;;
20454;SDS011;10386;54.314;10.022;2023-08-30T00:35:22;3.73;;;2.30;;
20454;SDS011;10386;54.314;10.022;2023-08-30T00:37:50;2.60;;;2.40;;
20454;SDS011;10386;54.314;10.022;2023-08-30T00:40:22;2.53;;;2.33;;
20454;SDS011;10386;54.314;10.022;2023-08-30T00:42:52;3.30;;;2.43;;
20454;SDS011;10386;54.314;10.022;2023-08-30T00:45:21;2.60;;;2.30;;
20454;SDS011;10386;54.314;10.022;2023-08-30T00:47:49;2.43;;;2.23;;
20454;SDS011;10386;54.314;10.022;2023-08-30T00:50:17;2.40;;;2.20;;
20454;SDS011;10386;54.314;10.022;2023-08-30T00:52:46;4.30;;;2.23;;
20454;SDS011;10386;54.314;10.022;2023-08-30T00:55:15;5.60;;;2.20;;
20454;SDS011;10386;54.314;10.022;2023-08-30T00:57:43;2.53;;;2.10;;
20454;SDS011;10386;54.314;10.022;2023-08-30T01:00:14;4.20;;;2.10;;
20454;SDS011;10386;54.314;10.022;2023-08-30T01:02:42;2.67;;;2.47;;
20454;SDS011;10386;54.314;10.022;2023-08-30T01:05:10;3.50;;;2.50;;
20454;SDS011;10386;54.314;10.022;2023-08-30T01:07:39;2.60;;;2.40;;
20454;SDS011;10386;54.314;10.022;2023-08-30T01:10:07;2.63;;;2.43;;
20454;SDS011;10386;54.314;10.022;2023-08-30T01:12:47;4.57;;;2.60;;
20454;SDS011;10386;54.314;10.022;2023-08-30T01:15:20;3.10;;;2.80;;
20454;SDS011;10386;54.314;10.022;2023-08-30T01:17:48;3.47;;;2.40;;
20454;SDS011;10386;54.314;10.022;2023-08-30T01:20:17;4.13;;;2.60;;
20454;SDS011;10386;54.314;10.022;2023-08-30T01:23:06;4.93;;;3.00;;
20454;SDS011;10386;54.314;10.022;2023-08-30T01:28:13;3.83;;;2.77;;
20454;SDS011;10386;54.314;10.022;2023-08-30T01:30:46;6.30;;;3.40;;
20454;SDS011;10386;54.314;10.022;2023-08-30T01:33:16;3.13;;;2.83;;
20454;SDS011;10386;54.314;10.022;2023-08-30T01:35:45;2.80;;;2.50;;
20454;SDS011;10386;54.314;10.022;2023-08-30T01:38:14;3.73;;;2.83;;
20454;SDS011;10386;54.314;10.022;2023-08-30T01:40:44;3.00;;;2.70;;
20454;SDS011;10386;54.314;10.022;2023-08-30T01:43:15;3.53;;;2.80;;
20454;SDS011;10386;54.314;10.022;2023-08-30T01:45:44;2.90;;;2.60;;
20454;SDS011;10386;54.314;10.022;2023-08-30T01:48:13;3.67;;;3.37;;
20454;SDS011;10386;54.314;10.022;2023-08-30T01:50:43;6.33;;;3.60;;
20454;SDS011;10386;54.314;10.022;2023-08-30T01:53:12;9.67;;;3.60;;
20454;SDS011;10386;54.314;10.022;2023-08-30T01:55:40;4.93;;;3.77;;
20454;SDS011;10386;54.314;10.022;2023-08-30T01:58:09;7.57;;;3.80;;
20454;SDS011;10386;54.314;10.022;2023-08-30T02:00:39;6.63;;;3.70;;
20454;SDS011;10386;54.314;10.022;2023-08-30T02:03:08;8.40;;;3.80;;
20454;SDS011;10386;54.314;10.022;2023-08-30T02:06:21;7.97;;;4.30;;
20454;SDS011;10386;54.314;10.022;2023-08-30T02:08:39;8.43;;;4.10;;
20454;SDS011;10386;54.314;10.022;2023-08-30T02:11:13;6.30;;;3.90;;
20454;SDS011;10386;54.314;10.022;2023-08-30T02:13:46;6.57;;;3.83;;
20454;SDS011;10386;54.314;10.022;2023-08-30T02:16:16;5.73;;;3.80;;
20454;SDS011;10386;54.314;10.022;2023-08-30T02:18:46;8.47;;;3.57;;
20454;SDS011;10386;54.314;10.022;2023-08-30T02:21:15;7.93;;;3.83;;
20454;SDS011;10386;54.314;10.022;2023-08-30T02:23:48;5.37;;;4.10;;
20454;SDS011;10386;54.314;10.022;2023-08-30T02:26:20;8.40;;;4.50;;
20454;SDS011;10386;54.314;10.022;2023-08-30T02:28:48;6.40;;;4.67;;
20454;SDS011;10386;54.314;10.022;2023-08-30T02:31:16;8.63;;;4.70;;
20454;SDS011;10386;54.314;10.022;2023-08-30T02:33:44;8.10;;;4.70;;
20454;SDS011;10386;54.314;10.022;2023-08-30T02:36:12;8.37;;;4.83;;
20454;SDS011;10386;54.314;10.022;2023-08-30T02:38:40;10.80;;;5.47;;
20454;SDS011;10386;54.314;10.022;2023-08-30T02:41:08;9.73;;;5.13;;
20454;SDS011;10386;54.314;10.022;2023-08-30T02:43:37;6.53;;;4.80;;
20454;SDS011;10386;54.314;10.022;2023-08-30T02:46:05;9.67;;;5.80;;
20454;SDS011;10386;54.314;10.022;2023-08-30T02:48:33;9.97;;;6.53;;
20454;SDS011;10386;54.314;10.022;2023-08-30T02:51:01;12.27;;;6.57;;
20454;SDS011;10386;54.314;10.022;2023-08-30T02:53:29;9.93;;;5.70;;
20454;SDS011;10386;54.314;10.022;2023-08-30T02:55:56;9.43;;;5.33;;
20454;SDS011;10386;54.314;10.022;2023-08-30T02:58:24;10.27;;;5.80;;
20454;SDS011;10386;54.314;10.022;2023-08-30T03:00:52;12.73;;;5.87;;
20454;SDS011;10386;54.314;10.022;2023-08-30T03:03:20;9.77;;;5.87;;
20454;SDS011;10386;54.314;10.022;2023-08-30T03:05:48;9.90;;;5.73;;
20454;SDS011;10386;54.314;10.022;2023-08-30T03:08:16;10.83;;;6.37;;
20454;SDS011;10386;54.314;10.022;2023-08-30T03:10:44;9.53;;;6.30;;
20454;SDS011;10386;54.314;10.022;2023-08-30T03:13:12;9.63;;;6.40;;
20454;SDS011;10386;54.314;10.022;2023-08-30T03:15:39;12.03;;;7.03;;
20454;SDS011;10386;54.314;10.022;2023-08-30T03:18:07;11.97;;;8.07;;
20454;SDS011;10386;54.314;10.022;2023-08-30T03:20:35;14.73;;;8.47;;
20454;SDS011;10386;54.314;10.022;2023-08-30T03:23:02;11.97;;;8.03;;
20454;SDS011;10386;54.314;10.022;2023-08-30T03:25:30;13.03;;;7.77;;
20454;SDS011;10386;54.314;10.022;2023-08-30T03:27:58;12.20;;;7.63;;
20454;SDS011;10386;54.314;10.022;2023-08-30T03:30:26;10.10;;;6.53;;
20454;SDS011;10386;54.314;10.022;2023-08-30T03:32:54;12.83;;;6.83;;
20454;SDS011;10386;54.314;10.022;2023-08-30T03:35:21;11.23;;;6.23;;
20454;SDS011;10386;54.314;10.022;2023-08-30T03:37:49;8.87;;;6.23;;
20454;SDS011;10386;54.314;10.022;2023-08-30T03:40:17;10.43;;;6.60;;
20454;SDS011;10386;54.314;10.022;2023-08-30T03:42:44;11.70;;;7.63;;
20454;SDS011;10386;54.314;10.022;2023-08-30T03:45:12;12.90;;;8.57;;
20454;SDS011;10386;54.314;10.022;2023-08-30T03:47:39;12.50;;;7.93;;
20454;SDS011;10386;54.314;10.022;2023-08-30T03:50:07;14.43;;;8.27;;
20454;SDS011;10386;54.314;10.022;2023-08-30T03:52:35;14.43;;;8.60;;
20454;SDS011;10386;54.314;10.022;2023-08-30T03:55:03;14.60;;;8.73;;
20454;SDS011;10386;54.314;10.022;2023-08-30T03:57:31;14.33;;;8.83;;
20454;SDS011;10386;54.314;10.022;2023-08-30T03:59:59;14.37;;;8.83;;
20454;SDS011;10386;54.314;10.022;2023-08-30T04:02:27;16.77;;;9.47;;
20454;SDS011;10386;54.314;10.022;2023-08-30T04:04:56;13.43;;;8.53;;
20454;SDS011;10386;54.314;10.022;2023-08-30T04:07:24;16.77;;;9.17;;
20454;SDS011;10386;54.314;10.022;2023-08-30T04:09:51;14.50;;;9.07;;
20454;SDS011;10386;54.314;10.022;2023-08-30T04:12:19;14.57;;;8.87;;
20454;SDS011;10386;54.314;10.022;2023-08-30T04:14:47;17.50;;;8.77;;
20454;SDS011;10386;54.314;10.022;2023-08-30T04:17:14;15.23;;;9.00;;
20454;SDS011;10386;54.314;10.022;2023-08-30T04:19:41;14.27;;;8.93;;
20454;SDS011;10386;54.314;10.022;2023-08-30T04:22:09;17.97;;;9.43;;
20454;SDS011;10386;54.314;10.022;2023-08-30T04:24:37;16.80;;;9.30;;
20454;SDS011;10386;54.314;10.022;2023-08-30T04:27:05;14.43;;;8.77;;
20454;SDS011;10386;54.314;10.022;2023-08-30T04:29:32;15.70;;;9.53;;
20454;SDS011;10386;54.314;10.022;2023-08-30T04:32:00;14.57;;;9.20;;
20454;SDS011;10386;54.314;10.022;2023-08-30T04:34:28;13.90;;;9.03;;
20454;SDS011;10386;54.314;10.022;2023-08-30T04:36:57;14.90;;;9.00;;
20454;SDS011;10386;54.314;10.022;2023-08-30T04:39:24;13.23;;;8.90;;
20454;SDS011;10386;54.314;10.022;2023-08-30T04:41:52;16.77;;;9.43;;
20454;SDS011;10386;54.314;10.022;2023-08-30T04:44:20;14.10;;;8.97;;
20454;SDS011;10386;54.314;10.022;2023-08-30T04:46:50;16.90;;;10.20;;
20454;SDS011;10386;54.314;10.022;2023-08-30T04:49:19;15.97;;;10.10;;
20454;SDS011;10386;54.314;10.022;2023-08-30T04:51:48;16.47;;;10.20;;
20454;SDS011;10386;54.314;10.022;2023-08-30T04:54:16;15.40;;;9.90;;
20454;SDS011;10386;54.314;10.022;2023-08-30T04:56:43;15.97;;;9.47;;
20454;SDS011;10386;54.314;10.022;2023-08-30T04:59:11;16.37;;;9.67;;
20454;SDS011;10386;54.314;10.022;2023-08-30T05:01:39;15.23;;;9.93;;
20454;SDS011;10386;54.314;10.022;2023-08-30T05:04:14;16.43;;;10.13;;
20454;SDS011;10386;54.314;10.022;2023-08-30T05:06:41;18.05;;;10.77;;
20454;SDS011;10386;54.314;10.022;2023-08-30T05:09:09;14.93;;;10.00;;
20454;SDS011;10386;54.314;10.022;2023-08-30T05:11:37;14.47;;;9.17;;
20454;SDS011;10386;54.314;10.022;2023-08-30T05:14:05;15.97;;;9.77;;
20454;SDS011;10386;54.314;10.022;2023-08-30T05:16:33;14.90;;;9.57;;
20454;SDS011;10386;54.314;10.022;2023-08-30T05:19:01;18.13;;;10.43;;
20454;SDS011;10386;54.314;10.022;2023-08-30T05:21:30;17.83;;;10.07;;
20454;SDS011;10386;54.314;10.022;2023-08-30T05:23:58;15.90;;;9.67;;
20454;SDS011;10386;54.314;10.022;2023-08-30T05:26:26;16.17;;;9.80;;
20454;SDS011;10386;54.314;10.022;2023-08-30T05:28:53;16.83;;;9.07;;
20454;SDS011;10386;54.314;10.022;2023-08-30T05:31:21;14.47;;;8.97;;
20454;SDS011;10386;54.314;10.022;2023-08-30T05:33:49;14.37;;;7.90;;
20454;SDS011;10386;54.314;10.022;2023-08-30T05:36:17;17.57;;;9.27;;
20454;SDS011;10386;54.314;10.022;2023-08-30T05:38:44;15.50;;;9.07;;
20454;SDS011;10386;54.314;10.022;2023-08-30T05:41:12;15.10;;;9.03;;
20454;SDS011;10386;54.314;10.022;2023-08-30T05:43:39;13.80;;;8.57;;
20454;SDS011;10386;54.314;10.022;2023-08-30T05:46:07;14.10;;;8.10;;
20454;SDS011;10386;54.314;10.022;2023-08-30T05:48:39;13.33;;;8.70;;
20454;SDS011;10386;54.314;10.022;2023-08-30T05:51:09;12.53;;;8.17;;
20454;SDS011;10386;54.314;10.022;2023-08-30T05:53:37;16.33;;;8.30;;
20454;SDS011;10386;54.314;10.022;2023-08-30T05:56:04;13.63;;;7.87;;
20454;SDS011;10386;54.314;10.022;2023-08-30T05:58:31;13.47;;;8.27;;
20454;SDS011;10386;54.314;10.022;2023-08-30T06:00:59;14.10;;;7.07;;
20454;SDS011;10386;54.314;10.022;2023-08-30T06:03:31;15.10;;;8.63;;
20454;SDS011;10386;54.314;10.022;2023-08-30T06:05:58;12.73;;;7.70;;
20454;SDS011;10386;54.314;10.022;2023-08-30T06:08:26;16.07;;;8.27;;
20454;SDS011;10386;54.314;10.022;2023-08-30T06:10:54;14.03;;;7.73;;
20454;SDS011;10386;54.314;10.022;2023-08-30T06:13:22;13.93;;;7.97;;
20454;SDS011;10386;54.314;10.022;2023-08-30T06:15:53;16.93;;;8.33;;
20454;SDS011;10386;54.314;10.022;2023-08-30T06:18:21;15.87;;;8.13;;
20454;SDS011;10386;54.314;10.022;2023-08-30T06:20:49;13.17;;;7.97;;
20454;SDS011;10386;54.314;10.022;2023-08-30T06:23:18;21.53;;;9.40;;
20454;SDS011;10386;54.314;10.022;2023-08-30T06:25:53;19.30;;;9.70;;
20454;SDS011;10386;54.314;10.022;2023-08-30T06:28:21;15.83;;;8.40;;
20454;SDS011;10386;54.314;10.022;2023-08-30T06:30:50;13.40;;;8.00;;
20454;SDS011;10386;54.314;10.022;2023-08-30T06:33:17;14.90;;;8.40;;
20454;SDS011;10386;54.314;10.022;2023-08-30T06:35:47;14.07;;;8.27;;
20454;SDS011;10386;54.314;10.022;2023-08-30T06:38:17;14.00;;;8.17;;
20454;SDS011;10386;54.314;10.022;2023-08-30T06:40:46;16.90;;;7.90;;
20454;SDS011;10386;54.314;10.022;2023-08-30T06:43:13;12.93;;;7.87;;
20454;SDS011;10386;54.314;10.022;2023-08-30T06:45:41;13.27;;;8.07;;
20454;SDS011;10386;54.314;10.022;2023-08-30T06:48:10;16.03;;;7.90;;
20454;SDS011;10386;54.314;10.022;2023-08-30T06:50:39;13.33;;;8.33;;
20454;SDS011;10386;54.314;10.022;2023-08-30T06:53:07;16.37;;;8.23;;
20454;SDS011;10386;54.314;10.022;2023-08-30T06:55:36;16.63;;;8.17;;
20454;SDS011;10386;54.314;10.022;2023-08-30T06:58:05;12.47;;;7.90;;
20454;SDS011;10386;54.314;10.022;2023-08-30T07:00:33;11.57;;;7.97;;
20454;SDS011;10386;54.314;10.022;2023-08-30T07:03:02;18.87;;;8.30;;
20454;SDS011;10386;54.314;10.022;2023-08-30T07:05:30;15.90;;;8.37;;
20454;SDS011;10386;54.314;10.022;2023-08-30T07:07:58;15.17;;;8.13;;
20454;SDS011;10386;54.314;10.022;2023-08-30T07:10:26;11.83;;;8.20;;
20454;SDS011;10386;54.314;10.022;2023-08-30T07:12:54;14.23;;;7.47;;
20454;SDS011;10386;54.314;10.022;2023-08-30T07:15:23;11.23;;;7.03;;
20454;SDS011;10386;54.314;10.022;2023-08-30T07:17:51;12.47;;;8.07;;
20454;SDS011;10386;54.314;10.022;2023-08-30T07:20:33;11.07;;;7.00;;
20454;SDS011;10386;54.314;10.022;2023-08-30T07:23:03;10.77;;;6.93;;
20454;SDS011;10386;54.314;10.022;2023-08-30T07:25:36;11.33;;;6.67;;
20454;SDS011;10386;54.314;10.022;2023-08-30T07:28:05;10.70;;;6.43;;
20454;SDS011;10386;54.314;10.022;2023-08-30T07:30:34;8.27;;;5.53;;
20454;SDS011;10386;54.314;10.022;2023-08-30T07:33:02;8.57;;;6.07;;
20454;SDS011;10386;54.314;10.022;2023-08-30T07:35:31;9.13;;;6.03;;
20454;SDS011;10386;54.314;10.022;2023-08-30T07:38:00;7.73;;;5.80;;
20454;SDS011;10386;54.314;10.022;2023-08-30T07:40:28;8.20;;;5.63;;
20454;SDS011;10386;54.314;10.022;2023-08-30T07:42:56;9.68;;;5.82;;
20454;SDS011;10386;54.314;10.022;2023-08-30T07:45:25;11.43;;;6.50;;
20454;SDS011;10386;54.314;10.022;2023-08-30T07:47:53;7.00;;;5.53;;
20454;SDS011;10386;54.314;10.022;2023-08-30T07:50:21;8.50;;;5.65;;
20454;SDS011;10386;54.314;10.022;2023-08-30T07:52:49;9.03;;;6.13;;
20454;SDS011;10386;54.314;10.022;2023-08-30T07:55:18;9.77;;;6.07;;
20454;SDS011;10386;54.314;10.022;2023-08-30T07:57:47;8.13;;;6.25;;
20454;SDS011;10386;54.314;10.022;2023-08-30T08:00:15;11.53;;;7.17;;
20454;SDS011;10386;54.314;10.022;2023-08-30T08:02:43;9.18;;;6.18;;
20454;SDS011;10386;54.314;10.022;2023-08-30T08:05:11;11.97;;;6.93;;
20454;SDS011;10386;54.314;10.022;2023-08-30T08:07:39;10.27;;;6.40;;
20454;SDS011;10386;54.314;10.022;2023-08-30T08:10:09;12.70;;;6.20;;
20454;SDS011;10386;54.314;10.022;2023-08-30T08:12:37;12.35;;;6.45;;
20454;SDS011;10386;54.314;10.022;2023-08-30T08:15:06;10.00;;;5.93;;
20454;SDS011;10386;54.314;10.022;2023-08-30T08:17:34;11.10;;;6.35;;
20454;SDS011;10386;54.314;10.022;2023-08-30T08:20:03;12.20;;;6.13;;
20454;SDS011;10386;54.314;10.022;2023-08-30T08:22:33;11.30;;;6.85;;
20454;SDS011;10386;54.314;10.022;2023-08-30T08:25:01;8.70;;;6.35;;
20454;SDS011;10386;54.314;10.022;2023-08-30T08:27:29;9.15;;;6.75;;
20454;SDS011;10386;54.314;10.022;2023-08-30T08:29:57;13.02;;;6.50;;
20454;SDS011;10386;54.314;10.022;2023-08-30T08:32:25;7.45;;;5.90;;
20454;SDS011;10386;54.314;10.022;2023-08-30T08:34:53;8.07;;;5.88;;
20454;SDS011;10386;54.314;10.022;2023-08-30T08:37:21;8.80;;;6.10;;
20454;SDS011;10386;54.314;10.022;2023-08-30T08:39:49;11.07;;;6.50;;
20454;SDS011;10386;54.314;10.022;2023-08-30T08:42:18;8.18;;;5.60;;
20454;SDS011;10386;54.314;10.022;2023-08-30T08:44:47;9.88;;;5.90;;
20454;SDS011;10386;54.314;10.022;2023-08-30T08:47:19;7.53;;;5.90;;
20454;SDS011;10386;54.314;10.022;2023-08-30T08:49:48;13.68;;;5.97;;
20454;SDS011;10386;54.314;10.022;2023-08-30T08:52:17;11.95;;;6.30;;
20454;SDS011;10386;54.314;10.022;2023-08-30T08:54:57;7.05;;;5.95;;
20454;SDS011;10386;54.314;10.022;2023-08-30T08:57:28;8.93;;;5.78;;
20454;SDS011;10386;54.314;10.022;2023-08-30T08:59:58;10.25;;;6.47;;
20454;SDS011;10386;54.314;10.022;2023-08-30T09:02:26;7.97;;;6.20;;
20454;SDS011;10386;54.314;10.022;2023-08-30T09:04:56;9.48;;;6.72;;
20454;SDS011;10386;54.314;10.022;2023-08-30T09:07:26;12.98;;;6.82;;
20454;SDS011;10386;54.314;10.022;2023-08-30T09:09:57;10.50;;;6.82;;
20454;SDS011;10386;54.314;10.022;2023-08-30T09:12:25;11.02;;;6.80;;
20454;SDS011;10386;54.314;10.022;2023-08-30T09:14:57;10.38;;;6.57;;
20454;SDS011;10386;54.314;10.022;2023-08-30T09:17:35;10.27;;;6.60;;
20454;SDS011;10386;54.314;10.022;2023-08-30T09:20:09;10.45;;;7.10;;
20454;SDS011;10386;54.314;10.022;2023-08-30T09:22:42;11.80;;;7.07;;
20454;SDS011;10386;54.314;10.022;2023-08-30T09:25:11;12.15;;;6.68;;
20454;SDS011;10386;54.314;10.022;2023-08-30T09:27:51;8.48;;;6.93;;
20454;SDS011;10386;54.314;10.022;2023-08-30T09:30:25;9.65;;;6.47;;
20454;SDS011;10386;54.314;10.022;2023-08-30T09:33:00;9.27;;;6.50;;
20454;SDS011;10386;54.314;10.022;2023-08-30T09:35:29;9.02;;;6.70;;
20454;SDS011;10386;54.314;10.022;2023-08-30T09:37:58;7.35;;;5.70;;
20454;SDS011;10386;54.314;10.022;2023-08-30T09:40:26;12.93;;;6.85;;
20454;SDS011;10386;54.314;10.022;2023-08-30T09:42:54;8.90;;;6.15;;
20454;SDS011;10386;54.314;10.022;2023-08-30T09:45:38;10.57;;;6.13;;
20454;SDS011;10386;54.314;10.022;2023-08-30T09:48:07;9.48;;;6.22;;
20454;SDS011;10386;54.314;10.022;2023-08-30T09:50:36;9.90;;;6.47;;
20454;SDS011;10386;54.314;10.022;2023-08-30T09:53:07;8.68;;;6.18;;
20454;SDS011;10386;54.314;10.022;2023-08-30T09:55:39;9.93;;;5.90;;
20454;SDS011;10386;54.314;10.022;2023-08-30T09:58:09;11.00;;;5.97;;
20454;SDS011;10386;54.314;10.022;2023-08-30T10:00:40;9.07;;;6.20;;
20454;SDS011;10386;54.314;10.022;2023-08-30T10:03:09;8.52;;;6.00;;
20454;SDS011;10386;54.314;10.022;2023-08-30T10:05:56;10.75;;;6.95;;
20454;SDS011;10386;54.314;10.022;2023-08-30T10:08:26;9.40;;;7.00;;
20454;SDS011;10386;54.314;10.022;2023-08-30T10:10:58;9.48;;;6.53;;
20454;SDS011;10386;54.314;10.022;2023-08-30T10:13:27;13.90;;;7.25;;
20454;SDS011;10386;54.314;10.022;2023-08-30T10:15:58;9.88;;;6.43;;
20454;SDS011;10386;54.314;10.022;2023-08-30T10:18:31;10.50;;;6.50;;
20454;SDS011;10386;54.314;10.022;2023-08-30T10:21:05;9.38;;;6.63;;
20454;SDS011;10386;54.314;10.022;2023-08-30T10:23:35;10.63;;;6.32;;
20454;SDS011;10386;54.314;10.022;2023-08-30T10:26:04;12.48;;;6.30;;
20454;SDS011;10386;54.314;10.022;2023-08-30T10:28:34;12.10;;;6.75;;
20454;SDS011;10386;54.314;10.022;2023-08-30T10:31:04;12.38;;;6.28;;
20454;SDS011;10386;54.314;10.022;2023-08-30T10:33:32;9.27;;;6.53;;
20454;SDS011;10386;54.314;10.022;2023-08-30T10:36:06;9.23;;;6.30;;
20454;SDS011;10386;54.314;10.022;2023-08-30T10:38:34;10.05;;;6.32;;
20454;SDS011;10386;54.314;10.022;2023-08-30T10:41:06;11.48;;;6.00;;
20454;SDS011;10386;54.314;10.022;2023-08-30T10:43:35;11.20;;;6.22;;
20454;SDS011;10386;54.314;10.022;2023-08-30T10:46:05;9.57;;;5.50;;
20454;SDS011;10386;54.314;10.022;2023-08-30T10:48:39;9.23;;;5.32;;
20454;SDS011;10386;54.314;10.022;2023-08-30T10:51:43;9.80;;;5.25;;
20454;SDS011;10386;54.314;10.022;2023-08-30T10:54:14;5.97;;;4.60;;
20454;SDS011;10386;54.314;10.022;2023-08-30T10:56:46;8.48;;;4.90;;
20454;SDS011;10386;54.314;10.022;2023-08-30T10:59:18;5.38;;;4.68;;
20454;SDS011;10386;54.314;10.022;2023-08-30T11:01:46;6.07;;;4.68;;
20454;SDS011;10386;54.314;10.022;2023-08-30T11:04:15;7.68;;;4.60;;
20454;SDS011;10386;54.314;10.022;2023-08-30T11:06:44;9.82;;;4.97;;
20454;SDS011;10386;54.314;10.022;2023-08-30T11:09:16;7.30;;;4.97;;
20454;SDS011;10386;54.314;10.022;2023-08-30T11:11:46;8.23;;;5.18;;
20454;SDS011;10386;54.314;10.022;2023-08-30T11:14:14;8.23;;;5.22;;
20454;SDS011;10386;54.314;10.022;2023-08-30T11:16:43;8.65;;;5.78;;
20454;SDS011;10386;54.314;10.022;2023-08-30T11:19:11;9.00;;;6.28;;
20454;SDS011;10386;54.314;10.022;2023-08-30T11:21:39;9.85;;;4.88;;
20454;SDS011;10386;54.314;10.022;2023-08-30T11:24:10;7.38;;;5.85;;
20454;SDS011;10386;54.314;10.022;2023-08-30T11:26:39;10.65;;;5.50;;
20454;SDS011;10386;54.314;10.022;2023-08-30T11:29:07;9.25;;;5.10;;
20454;SDS011;10386;54.314;10.022;2023-08-30T11:31:35;7.72;;;5.10;;
20454;SDS011;10386;54.314;10.022;2023-08-30T11:34:03;11.68;;;5.63;;
20454;SDS011;10386;54.314;10.022;2023-08-30T11:36:31;7.93;;;5.43;;
20454;SDS011;10386;54.314;10.022;2023-08-30T11:39:02;8.73;;;5.60;;
20454;SDS011;10386;54.314;10.022;2023-08-30T11:41:30;7.65;;;5.50;;
20454;SDS011;10386;54.314;10.022;2023-08-30T11:43:58;8.35;;;5.05;;
20454;SDS011;10386;54.314;10.022;2023-08-30T11:46:27;8.02;;;5.82;;
20454;SDS011;10386;54.314;10.022;2023-08-30T11:48:57;8.85;;;6.07;;
20454;SDS011;10386;54.314;10.022;2023-08-30T11:51:24;9.10;;;5.78;;
20454;SDS011;10386;54.314;10.022;2023-08-30T11:53:52;10.02;;;5.57;;
20454;SDS011;10386;54.314;10.022;2023-08-30T11:56:21;9.35;;;5.32;;
20454;SDS011;10386;54.314;10.022;2023-08-30T11:58:49;10.60;;;5.63;;
20454;SDS011;10386;54.314;10.022;2023-08-30T12:01:18;8.52;;;5.25;;
20454;SDS011;10386;54.314;10.022;2023-08-30T12:03:46;6.45;;;4.95;;
20454;SDS011;10386;54.314;10.022;2023-08-30T12:06:17;10.73;;;5.63;;
20454;SDS011;10386;54.314;10.022;2023-08-30T12:08:44;6.20;;;5.13;;
20454;SDS011;10386;54.314;10.022;2023-08-30T12:11:18;8.02;;;5.38;;
20454;SDS011;10386;54.314;10.022;2023-08-30T12:13:46;8.60;;;5.45;;
20454;SDS011;10386;54.314;10.022;2023-08-30T12:16:17;7.53;;;4.40;;
20454;SDS011;10386;54.314;10.022;2023-08-30T12:18:45;8.65;;;5.22;;
20454;SDS011;10386;54.314;10.022;2023-08-30T12:21:13;8.98;;;5.32;;
20454;SDS011;10386;54.314;10.022;2023-08-30T12:23:41;9.80;;;5.30;;
20454;SDS011;10386;54.314;10.022;2023-08-30T12:26:09;10.35;;;6.40;;
20454;SDS011;10386;54.314;10.022;2023-08-30T12:28:38;9.43;;;6.13;;
20454;SDS011;10386;54.314;10.022;2023-08-30T12:31:06;11.38;;;5.53;;
20454;SDS011;10386;54.314;10.022;2023-08-30T12:33:34;9.45;;;5.78;;
20454;SDS011;10386;54.314;10.022;2023-08-30T12:36:03;6.93;;;5.40;;
20454;SDS011;10386;54.314;10.022;2023-08-30T12:38:32;14.23;;;6.25;;
20454;SDS011;10386;54.314;10.022;2023-08-30T12:41:00;7.93;;;5.18;;
20454;SDS011;10386;54.314;10.022;2023-08-30T12:43:30;8.95;;;5.53;;
20454;SDS011;10386;54.314;10.022;2023-08-30T12:45:57;11.02;;;6.05;;
20454;SDS011;10386;54.314;10.022;2023-08-30T12:48:25;8.23;;;5.60;;
20454;SDS011;10386;54.314;10.022;2023-08-30T12:50:53;10.38;;;5.55;;
20454;SDS011;10386;54.314;10.022;2023-08-30T12:53:20;9.70;;;5.22;;
20454;SDS011;10386;54.314;10.022;2023-08-30T12:55:47;10.25;;;5.82;;
20454;SDS011;10386;54.314;10.022;2023-08-30T12:58:15;12.07;;;5.18;;
20454;SDS011;10386;54.314;10.022;2023-08-30T13:00:42;11.35;;;5.50;;
20454;SDS011;10386;54.314;10.022;2023-08-30T13:03:10;11.82;;;5.15;;
20454;SDS011;10386;54.314;10.022;2023-08-30T13:05:38;10.23;;;5.82;;
20454;SDS011;10386;54.314;10.022;2023-08-30T13:08:05;7.38;;;5.13;;
20454;SDS011;10386;54.314;10.022;2023-08-30T13:10:32;6.70;;;5.20;;
20454;SDS011;10386;54.314;10.022;2023-08-30T13:13:00;7.63;;;5.30;;
20454;SDS011;10386;54.314;10.022;2023-08-30T13:15:27;11.43;;;5.65;;
20454;SDS011;10386;54.314;10.022;2023-08-30T13:17:55;7.35;;;5.30;;
20454;SDS011;10386;54.314;10.022;2023-08-30T13:20:22;9.55;;;5.10;;
20454;SDS011;10386;54.314;10.022;2023-08-30T13:22:49;8.23;;;5.30;;
20454;SDS011;10386;54.314;10.022;2023-08-30T13:25:17;11.57;;;5.32;;
20454;SDS011;10386;54.314;10.022;2023-08-30T13:27:45;8.18;;;4.85;;
20454;SDS011;10386;54.314;10.022;2023-08-30T13:30:12;8.68;;;5.03;;
20454;SDS011;10386;54.314;10.022;2023-08-30T13:32:40;8.77;;;5.25;;
20454;SDS011;10386;54.314;10.022;2023-08-30T13:35:07;9.13;;;5.95;;
20454;SDS011;10386;54.314;10.022;2023-08-30T13:37:35;8.65;;;5.35;;
20454;SDS011;10386;54.314;10.022;2023-08-30T13:40:02;7.40;;;5.07;;
20454;SDS011;10386;54.314;10.022;2023-08-30T13:42:32;8.77;;;4.80;;
20454;SDS011;10386;54.314;10.022;2023-08-30T13:45:01;7.55;;;5.05;;
20454;SDS011;10386;54.314;10.022;2023-08-30T13:47:29;11.02;;;5.30;;
20454;SDS011;10386;54.314;10.022;2023-08-30T13:49:56;7.80;;;5.10;;
20454;SDS011;10386;54.314;10.022;2023-08-30T13:52:24;7.63;;;4.90;;
20454;SDS011;10386;54.314;10.022;2023-08-30T13:54:51;13.13;;;5.72;;
20454;SDS011;10386;54.314;10.022;2023-08-30T13:57:18;9.65;;;5.30;;
20454;SDS011;10386;54.314;10.022;2023-08-30T13:59:47;9.50;;;5.47;;
20454;SDS011;10386;54.314;10.022;2023-08-30T14:02:14;12.15;;;6.20;;
20454;SDS011;10386;54.314;10.022;2023-08-30T14:04:41;9.52;;;6.07;;
20454;SDS011;10386;54.314;10.022;2023-08-30T14:07:08;7.55;;;5.03;;
20454;SDS011;10386;54.314;10.022;2023-08-30T14:09:38;9.20;;;4.57;;
20454;SDS011;10386;54.314;10.022;2023-08-30T14:12:05;8.82;;;5.20;;
20454;SDS011;10386;54.314;10.022;2023-08-30T14:14:33;8.88;;;5.00;;
20454;SDS011;10386;54.314;10.022;2023-08-30T14:17:00;7.32;;;5.00;;
20454;SDS011;10386;54.314;10.022;2023-08-30T14:19:28;8.20;;;5.70;;
20454;SDS011;10386;54.314;10.022;2023-08-30T14:22:14;7.22;;;5.07;;
20454;SDS011;10386;54.314;10.022;2023-08-30T14:24:41;10.18;;;5.38;;
20454;SDS011;10386;54.314;10.022;2023-08-30T14:27:28;7.88;;;4.65;;
20454;SDS011;10386;54.314;10.022;2023-08-30T14:29:56;7.18;;;5.18;;
20454;SDS011;10386;54.314;10.022;2023-08-30T14:32:23;8.85;;;4.90;;
20454;SDS011;10386;54.314;10.022;2023-08-30T14:34:50;6.57;;;4.95;;
20454;SDS011;10386;54.314;10.022;2023-08-30T14:37:18;6.38;;;4.93;;
20454;SDS011;10386;54.314;10.022;2023-08-30T14:39:45;9.93;;;5.55;;
20454;SDS011;10386;54.314;10.022;2023-08-30T14:42:13;8.13;;;5.55;;